Cou Falls, Iowa
Current Conditions -  °F | °C
As of 6:52 AM on Tuesday 21 Oct 2014 (Local Time) from KCID Reporting Station
Clear Clear  
Wind Chill: 33°   Ceiling: Unl
Heat Index: 37°   Visibility: 9mi
Dew Point: 37°   Wind: 5mph
Humidity: 100%   Direction: 360°N
Pressure: 30.13"   Gusts: NA
Location:  41.8309°N, 91.7193°W
Report Text: KCID 211152Z 36004KT 9SM CLR 03/03 A3013 RMK AO2 SLP209 T00280028 10083 20022 53015
Loading
Personal Weather Stations






























Interactive Weather Map
Tropical Storm Tracking
New forecast layout! Learn more

10-Day Weather Forecast

Advertisements
Track Severe Weather on mobile